Torreon, Mexico

6:10 AM CST on December 06, 2016 (GMT -0600)
Rancho Rubio | | Change Station

Elev 3714 ft 25.55 °N, 103.43 °W | Updated 5 seconds ago

Clear
Clear
39.8 °F
Feels Like 37 °F
N
4.0
Wind Variable Wind from SSE
Gusts 6.0 mph

Today
High -- | Low -- °F
--% Chance of Precip.
Yesterday
High -- | Low -- °F
Precip. -- in
Pressure 30.03 in
Visibility 10.0 miles
Clouds Clear
Windchill 37 °F
Dew Point 38 °F
Humidity 93%
Rainfall 0.00 in
Snow Depth Not available.
7:26 AM 6:03 PM
Waxing Crescent, 41% visible
METAR MMTC 061041Z 00000KT 10SM SKC 09/04 A3003 RMK HZY RTS
Pressure 30.03 in
Visibility 10.0 miles
Clouds Clear
Windchill 37 °F
Dew Point 38 °F
Humidity 93%
Rainfall 0.00 in
Snow Depth Not available.
7:26 AM 6:03 PM
Waxing Crescent, 41% visible
METAR MMTC 061041Z 00000KT 10SM SKC 09/04 A3003 RMK HZY RTS

10-Day Weather Forecast

No radar image for this location.
×

Almanac

Astronomy

Dec. 06, 2016 Rise Set
Actual Time
Civil Twilight
Nautical Twilight
Astronomical Twilight
Moon
Length of Visible Light
Length of Day
Tomorrow will be .
, % of the Moon is Illuminated

Today's Extremes

Country Highs Country Lows

Community

WunderPhotos

Upload Photos

1,955,936 photos uploaded!

WunderBlog® & News

Nearby

Air Quality

  Air Quality AQ Index Pollutant
Not available.

Snow Depth

Station Depth Elevation

Earthquake Activity

City Distance Mag. Time & Date
Minimum magnitude displayed is 2.5.

Coastal Water Temperatures

Place Temperature

Stations

Nearby Weather Stations

Station Location Temp. Windchill Dew Point Humidity Wind Precip. Elev Updated Type